Time;durP1;ratioP1;P1;durP2;ratioP2;P2;SDS_P1;SDS_P2;PMS_P1;PMS_P2;Temp;Humidity;BMP_temperature;BMP_pressure;BME280_temperature;BME280_humidity;BME280_pressure;Samples;Min_cycle;Max_cycle;Signal;HPM_P1;HPM_P2
2024/02/23 00:01:54;;;;;;;6.60;3.80;;;;;;;;;;106955;1256;60424;-85
2024/02/23 00:04:21;;;;;;;10.50;5.50;;;;;;;;;;107106;1256;60534;-87
2024/02/23 00:06:47;;;;;;;12.50;6.50;;;;;;;;;;107158;1256;60457;-80
2024/02/23 00:09:14;;;;;;;35.60;15.90;;;;;;;;;;107055;1256;60507;-79
2024/02/23 00:11:43;;;;;;;10.90;5.80;;;;;;;;;;107106;1253;60415;-85
2024/02/23 00:14:11;;;;;;;12.80;5.50;;;;;;;;;;107100;1255;58908;-85
2024/02/23 00:16:38;;;;;;;8.40;4.50;;;;;;;;;;107073;1251;60342;-85
2024/02/23 00:19:05;;;;;;;9.70;6.00;;;;;;;;;;107134;1256;60188;-79
2024/02/23 00:21:31;;;;;;;19.60;8.20;;;;;;;;;;107073;1251;59776;-79
2024/02/23 00:23:57;;;;;;;15.60;7.80;;;;;;;;;;107152;1251;60514;-79
2024/02/23 00:26:24;;;;;;;8.50;4.40;;;;;;;;;;107117;1255;60450;-85
2024/02/23 00:28:50;;;;;;;8.10;6.40;;;;;;;;;;107062;1251;60440;-85
2024/02/23 00:31:16;;;;;;;4.30;3.30;;;;;;;;;;107033;1254;59113;-79
2024/02/23 00:33:43;;;;;;;2.80;2.20;;;;;;;;;;106839;1256;62622;-80
2024/02/23 00:36:09;;;;;;;3.00;1.70;;;;;;;;;;106991;1259;60469;-85
2024/02/23 00:38:36;;;;;;;18.10;8.20;;;;;;;;;;107141;1251;60446;-79
2024/02/23 00:41:02;;;;;;;9.60;7.00;;;;;;;;;;108806;1258;58099;-85
2024/02/23 00:43:31;;;;;;;8.20;4.60;;;;;;;;;;107177;1252;60533;-80
2024/02/23 00:45:58;;;;;;;9.20;5.60;;;;;;;;;;107036;1251;59020;-84
2024/02/23 00:48:24;;;;;;;7.60;4.60;;;;;;;;;;107120;1255;60543;-80
2024/02/23 00:50:51;;;;;;;8.30;5.10;;;;;;;;;;106504;1254;61405;-79
2024/02/23 00:53:17;;;;;;;7.40;4.30;;;;;;;;;;107133;1254;61156;-85
2024/02/23 00:55:44;;;;;;;5.90;3.40;;;;;;;;;;107081;1253;60530;-84
2024/02/23 00:58:10;;;;;;;10.40;4.90;;;;;;;;;;107000;1253;60559;-79
2024/02/23 01:00:56;;;;;;;4.10;2.30;;;;;;;;;;107074;1252;61089;-85
2024/02/23 01:03:22;;;;;;;8.90;5.30;;;;;;;;;;107202;1256;60335;-79
2024/02/23 01:05:49;;;;;;;9.20;7.50;;;;;;;;;;106878;1258;60556;-79
2024/02/23 01:08:15;;;;;;;18.30;6.60;;;;;;;;;;107047;1252;60402;-79
2024/02/23 01:10:41;;;;;;;14.40;4.80;;;;;;;;;;107058;1254;60460;-79
2024/02/23 01:13:08;;;;;;;8.20;4.00;;;;;;;;;;107007;1258;60406;-80
2024/02/23 01:15:34;;;;;;;4.70;3.80;;;;;;;;;;107096;1253;60467;-79
2024/02/23 01:18:01;;;;;;;5.30;2.90;;;;;;;;;;107020;1253;60659;-85
2024/02/23 01:20:27;;;;;;;16.10;6.60;;;;;;;;;;107071;1256;60290;-79
2024/02/23 01:22:54;;;;;;;14.10;6.20;;;;;;;;;;107067;1256;60476;-80
2024/02/23 01:25:20;;;;;;;15.30;6.90;;;;;;;;;;106960;1252;60453;-79
2024/02/23 01:27:48;;;;;;;7.30;4.20;;;;;;;;;;106464;1254;60495;-79
2024/02/23 01:30:14;;;;;;;9.30;7.70;;;;;;;;;;109478;1252;59682;-80
2024/02/23 01:32:41;;;;;;;9.00;4.50;;;;;;;;;;109410;1251;58369;-81
2024/02/23 01:35:10;;;;;;;6.00;3.20;;;;;;;;;;109513;1251;58456;-86
2024/02/23 01:37:36;;;;;;;3.70;2.20;;;;;;;;;;107623;1257;60425;-86
2024/02/23 01:40:03;;;;;;;3.70;2.10;;;;;;;;;;107198;1251;58912;-85
2024/02/23 01:42:29;;;;;;;2.90;2.00;;;;;;;;;;107149;1251;61286;-85
2024/02/23 01:44:56;;;;;;;4.70;3.20;;;;;;;;;;107152;1254;60420;-85
2024/02/23 01:47:25;;;;;;;5.60;3.40;;;;;;;;;;107142;1251;60405;-85
2024/02/23 01:49:52;;;;;;;8.10;4.00;;;;;;;;;;107186;1254;62554;-85
2024/02/23 01:52:18;;;;;;;4.50;2.60;;;;;;;;;;107090;1252;60220;-85
2024/02/23 01:54:45;;;;;;;8.80;5.50;;;;;;;;;;106982;1254;60398;-79
2024/02/23 01:57:11;;;;;;;12.70;6.00;;;;;;;;;;107011;1253;60443;-84
2024/02/23 01:59:38;;;;;;;7.60;4.80;;;;;;;;;;106903;1253;60431;-79
2024/02/23 02:02:04;;;;;;;5.50;4.30;;;;;;;;;;107026;1254;60340;-79
2024/02/23 02:04:31;;;;;;;5.90;3.20;;;;;;;;;;107095;1254;60444;-79
2024/02/23 02:06:58;;;;;;;5.60;3.40;;;;;;;;;;107049;1254;60501;-87
2024/02/23 02:09:24;;;;;;;8.20;2.90;;;;;;;;;;107066;1256;60543;-87
2024/02/23 02:11:50;;;;;;;9.10;5.20;;;;;;;;;;107069;1254;60296;-87
2024/02/23 02:14:17;;;;;;;8.80;4.30;;;;;;;;;;107073;1256;60251;-79
2024/02/23 02:16:46;;;;;;;8.70;4.40;;;;;;;;;;107016;1256;60518;-84
2024/02/23 02:19:13;;;;;;;4.90;2.70;;;;;;;;;;107000;1253;61456;-85
2024/02/23 02:21:40;;;;;;;9.00;4.00;;;;;;;;;;107009;1256;60324;-79
2024/02/23 02:24:06;;;;;;;4.20;2.30;;;;;;;;;;107103;1254;60428;-85
2024/02/23 02:26:33;;;;;;;6.00;2.90;;;;;;;;;;107096;1253;59715;-79
2024/02/23 02:28:59;;;;;;;8.60;4.40;;;;;;;;;;107118;1256;60523;-85
2024/02/23 02:31:25;;;;;;;3.40;2.10;;;;;;;;;;107234;1254;60633;-79
2024/02/23 02:33:52;;;;;;;23.20;11.50;;;;;;;;;;106420;1257;60349;-80
2024/02/23 02:36:18;;;;;;;17.10;8.00;;;;;;;;;;107078;1255;60425;-84
2024/02/23 02:38:45;;;;;;;7.00;3.20;;;;;;;;;;107124;1254;60473;-79
2024/02/23 02:41:11;;;;;;;12.80;6.50;;;;;;;;;;106959;1257;62407;-85
2024/02/23 02:43:38;;;;;;;6.20;3.90;;;;;;;;;;108433;1254;60419;-85
2024/02/23 02:46:04;;;;;;;9.00;5.50;;;;;;;;;;107489;1251;60540;-85
2024/02/23 02:48:30;;;;;;;24.60;11.40;;;;;;;;;;107469;1257;59019;-85
2024/02/23 02:50:57;;;;;;;8.70;3.70;;;;;;;;;;107275;1251;60631;-85
2024/02/23 02:53:23;;;;;;;9.60;3.10;;;;;;;;;;107075;1256;60577;-85
2024/02/23 02:55:50;;;;;;;6.90;5.10;;;;;;;;;;107077;1255;60539;-79
2024/02/23 02:58:16;;;;;;;32.60;15.90;;;;;;;;;;107097;1256;60539;-84
2024/02/23 03:00:43;;;;;;;6.20;3.90;;;;;;;;;;107102;1256;60457;-85
2024/02/23 03:03:09;;;;;;;6.20;3.10;;;;;;;;;;107097;1253;60470;-85
2024/02/23 03:05:35;;;;;;;6.10;3.40;;;;;;;;;;107100;1258;58973;-82
2024/02/23 03:08:02;;;;;;;9.50;4.90;;;;;;;;;;107031;1256;59209;-85
2024/02/23 03:10:28;;;;;;;6.80;3.10;;;;;;;;;;107071;1253;60431;-88
2024/02/23 03:12:55;;;;;;;8.60;3.00;;;;;;;;;;107054;1253;60459;-85
2024/02/23 03:15:21;;;;;;;3.60;2.60;;;;;;;;;;107166;1254;60423;-85
2024/02/23 03:17:48;;;;;;;2.90;1.60;;;;;;;;;;107032;1256;60300;-85
2024/02/23 03:20:15;;;;;;;5.30;2.90;;;;;;;;;;107068;1254;60475;-85
2024/02/23 03:22:41;;;;;;;4.50;2.60;;;;;;;;;;107042;1256;60519;-80
2024/02/23 03:25:08;;;;;;;7.30;3.20;;;;;;;;;;107087;1254;60527;-85
2024/02/23 03:27:38;;;;;;;4.80;2.90;;;;;;;;;;106871;1253;61315;-80
2024/02/23 03:30:05;;;;;;;4.30;2.30;;;;;;;;;;107107;1253;61009;-79
2024/02/23 03:32:36;;;;;;;5.40;3.20;;;;;;;;;;107010;1254;60476;-79
2024/02/23 03:35:03;;;;;;;3.30;1.90;;;;;;;;;;106874;1257;60529;-85
2024/02/23 03:37:29;;;;;;;3.80;2.00;;;;;;;;;;107006;1253;60290;-85
2024/02/23 03:39:56;;;;;;;4.90;2.40;;;;;;;;;;107056;1254;59863;-84
2024/02/23 03:42:22;;;;;;;3.50;2.20;;;;;;;;;;106928;1257;60431;-84
2024/02/23 03:44:49;;;;;;;3.80;2.70;;;;;;;;;;107013;1256;60474;-79
2024/02/23 03:47:15;;;;;;;14.00;6.40;;;;;;;;;;106735;1260;60530;-79
2024/02/23 03:49:42;;;;;;;3.00;1.60;;;;;;;;;;107091;1256;60474;-79
2024/02/23 03:52:08;;;;;;;8.90;4.70;;;;;;;;;;107082;1256;60991;-85
2024/02/23 03:54:35;;;;;;;5.20;2.10;;;;;;;;;;107113;1256;61489;-84
2024/02/23 03:57:02;;;;;;;16.70;8.50;;;;;;;;;;107157;1256;60591;-87
2024/02/23 03:59:29;;;;;;;2.40;1.50;;;;;;;;;;107068;1256;60469;-85
2024/02/23 04:01:55;;;;;;;14.80;7.60;;;;;;;;;;107070;1256;59167;-87
2024/02/23 04:04:22;;;;;;;5.90;3.20;;;;;;;;;;107036;1259;60296;-81
2024/02/23 04:06:48;;;;;;;14.80;6.80;;;;;;;;;;106998;1257;60547;-87
2024/02/23 04:09:15;;;;;;;6.90;3.10;;;;;;;;;;107037;1256;60498;-80
2024/02/23 04:11:41;;;;;;;3.60;2.10;;;;;;;;;;106913;1257;60459;-79
2024/02/23 04:14:08;;;;;;;2.70;1.60;;;;;;;;;;107109;1254;60872;-79
2024/02/23 04:16:34;;;;;;;8.40;3.80;;;;;;;;;;107131;1257;59189;-80
2024/02/23 04:19:01;;;;;;;6.10;3.30;;;;;;;;;;107162;1254;60415;-84
2024/02/23 04:21:27;;;;;;;7.30;3.20;;;;;;;;;;107147;1252;60300;-79
2024/02/23 04:23:54;;;;;;;9.70;4.40;;;;;;;;;;106959;1259;60558;-79
2024/02/23 04:26:20;;;;;;;7.40;3.20;;;;;;;;;;106947;1251;60399;-79
2024/02/23 04:28:47;;;;;;;6.40;3.30;;;;;;;;;;107108;1251;60352;-82
2024/02/23 04:31:13;;;;;;;6.60;3.70;;;;;;;;;;106865;1260;60381;-87
2024/02/23 04:33:40;;;;;;;7.20;3.10;;;;;;;;;;107000;1257;60488;-79
2024/02/23 04:36:07;;;;;;;7.00;3.50;;;;;;;;;;107132;1251;60574;-80
2024/02/23 04:38:34;;;;;;;6.00;3.60;;;;;;;;;;106965;1254;60379;-79
2024/02/23 04:41:02;;;;;;;7.20;3.30;;;;;;;;;;107175;1254;61059;-80
2024/02/23 04:43:28;;;;;;;12.10;5.40;;;;;;;;;;107144;1255;60472;-79
2024/02/23 04:45:55;;;;;;;8.40;3.90;;;;;;;;;;106549;1256;60542;-80
2024/02/23 04:48:21;;;;;;;11.50;5.40;;;;;;;;;;107014;1258;58940;-85
2024/02/23 04:50:48;;;;;;;8.40;5.20;;;;;;;;;;107067;1251;60447;-79
2024/02/23 04:53:14;;;;;;;12.10;4.40;;;;;;;;;;106978;1251;60498;-79
2024/02/23 04:55:41;;;;;;;8.50;4.40;;;;;;;;;;106926;1259;60443;-85
2024/02/23 04:58:08;;;;;;;4.60;2.80;;;;;;;;;;106857;1257;60393;-85
2024/02/23 05:00:34;;;;;;;3.60;2.00;;;;;;;;;;107046;1254;60278;-85
2024/02/23 05:03:03;;;;;;;2.70;1.60;;;;;;;;;;107074;1257;59094;-85
2024/02/23 05:05:30;;;;;;;8.30;3.80;;;;;;;;;;107084;1256;60460;-79
2024/02/23 05:07:56;;;;;;;8.00;3.80;;;;;;;;;;107090;1256;58952;-85
2024/02/23 05:10:23;;;;;;;5.60;2.20;;;;;;;;;;107144;1253;60527;-82
2024/02/23 05:12:49;;;;;;;3.20;2.30;;;;;;;;;;106945;1254;59835;-87
2024/02/23 05:15:16;;;;;;;5.30;2.50;;;;;;;;;;106965;1254;60339;-87
2024/02/23 05:17:42;;;;;;;8.30;5.10;;;;;;;;;;107050;1256;61205;-80
2024/02/23 05:20:10;;;;;;;6.80;4.30;;;;;;;;;;106939;1254;60540;-82
2024/02/23 05:22:37;;;;;;;8.00;5.50;;;;;;;;;;107044;1254;60303;-82
2024/02/23 05:25:04;;;;;;;7.30;4.20;;;;;;;;;;107061;1254;60306;-80
2024/02/23 05:27:31;;;;;;;4.80;3.30;;;;;;;;;;107051;1254;60342;-85
2024/02/23 05:29:57;;;;;;;10.90;7.60;;;;;;;;;;107061;1253;61262;-86
2024/02/23 05:32:24;;;;;;;11.50;8.50;;;;;;;;;;107040;1256;60539;-80
2024/02/23 05:34:52;;;;;;;12.60;8.80;;;;;;;;;;107009;1254;60946;-87
2024/02/23 05:37:19;;;;;;;14.70;9.70;;;;;;;;;;107033;1254;60485;-86
2024/02/23 05:39:45;;;;;;;12.00;8.20;;;;;;;;;;107090;1257;60248;-81
2024/02/23 05:42:13;;;;;;;11.60;7.00;;;;;;;;;;107050;1256;60306;-79
2024/02/23 05:44:39;;;;;;;22.00;10.10;;;;;;;;;;107838;1254;59587;-85
2024/02/23 05:47:06;;;;;;;27.70;11.70;;;;;;;;;;109229;1253;222975;-80
2024/02/23 05:49:33;;;;;;;21.90;9.20;;;;;;;;;;107119;1252;60450;-85
2024/02/23 05:51:59;;;;;;;21.00;9.50;;;;;;;;;;107171;1251;60409;-85
2024/02/23 05:54:26;;;;;;;14.20;6.30;;;;;;;;;;107078;1255;59024;-84
2024/02/23 05:56:52;;;;;;;5.40;3.40;;;;;;;;;;107066;1257;60223;-79
2024/02/23 05:59:19;;;;;;;8.00;4.20;;;;;;;;;;107119;1251;60272;-85
2024/02/23 06:01:45;;;;;;;6.90;3.40;;;;;;;;;;107161;1254;60338;-80
2024/02/23 06:04:12;;;;;;;9.00;4.50;;;;;;;;;;106915;1257;60521;-80
2024/02/23 06:06:41;;;;;;;7.40;3.70;;;;;;;;;;107163;1254;60539;-86
2024/02/23 06:09:07;;;;;;;;;;;;;;;;;;108148;1251;58355;-80
2024/02/23 06:11:33;;;;;;;8.30;4.40;;;;;;;;;;108539;1251;60498;-84
2024/02/23 06:14:00;;;;;;;6.20;3.10;;;;;;;;;;106940;1257;61182;-85
2024/02/23 06:16:26;;;;;;;7.30;5.30;;;;;;;;;;107152;1255;59067;-81
2024/02/23 06:18:53;;;;;;;11.30;6.40;;;;;;;;;;107204;1251;60751;-86
2024/02/23 06:21:19;;;;;;;14.70;8.40;;;;;;;;;;107139;1255;60482;-86
2024/02/23 06:23:46;;;;;;;17.60;9.00;;;;;;;;;;106951;1251;60338;-80
2024/02/23 06:26:12;;;;;;;23.70;10.70;;;;;;;;;;106951;1251;60361;-80
2024/02/23 06:28:41;;;;;;;13.10;6.00;;;;;;;;;;107177;1251;60392;-85
2024/02/23 06:31:08;;;;;;;13.30;7.10;;;;;;;;;;107126;1256;62093;-80
2024/02/23 06:33:34;;;;;;;17.40;7.20;;;;;;;;;;107112;1251;60501;-80
2024/02/23 06:36:01;;;;;;;9.70;5.40;;;;;;;;;;107006;1251;60546;-87
2024/02/23 06:38:27;;;;;;;10.30;5.40;;;;;;;;;;106998;1254;60858;-80
2024/02/23 06:40:55;;;;;;;9.40;5.80;;;;;;;;;;107149;1251;59045;-80
2024/02/23 06:43:21;;;;;;;7.60;5.00;;;;;;;;;;106984;1251;60447;-86
2024/02/23 06:45:48;;;;;;;11.90;5.30;;;;;;;;;;107211;1256;60412;-85
2024/02/23 06:48:14;;;;;;;9.70;5.70;;;;;;;;;;107304;1251;60268;-80
2024/02/23 06:50:41;;;;;;;7.90;5.20;;;;;;;;;;106957;1258;61656;-85
2024/02/23 06:53:07;;;;;;;8.60;4.40;;;;;;;;;;107180;1257;59036;-85
2024/02/23 06:55:37;;;;;;;8.90;5.10;;;;;;;;;;107001;1251;60418;-79
2024/02/23 06:58:07;;;;;;;12.80;6.50;;;;;;;;;;107210;1251;60303;-86
2024/02/23 07:00:33;;;;;;;15.90;9.30;;;;;;;;;;107072;1254;60473;-86
2024/02/23 07:03:03;;;;;;;11.90;6.80;;;;;;;;;;107031;1257;60412;-85
2024/02/23 07:05:30;;;;;;;13.00;7.90;;;;;;;;;;107197;1251;60500;-85
2024/02/23 07:07:57;;;;;;;16.90;9.90;;;;;;;;;;107360;1251;61166;-80
2024/02/23 07:10:25;;;;;;;15.00;9.10;;;;;;;;;;109425;1251;58675;-86
2024/02/23 07:12:53;;;;;;;16.80;9.40;;;;;;;;;;108424;1251;59684;-80
2024/02/23 07:15:20;;;;;;;12.20;8.60;;;;;;;;;;107239;1251;60367;-79
2024/02/23 07:17:47;;;;;;;16.90;7.60;;;;;;;;;;107231;1251;61757;-85
2024/02/23 07:20:13;;;;;;;13.80;7.90;;;;;;;;;;107471;1251;62706;-85
2024/02/23 07:22:42;;;;;;;20.90;10.30;;;;;;;;;;107257;1251;60447;-80
2024/02/23 07:25:09;;;;;;;21.20;10.50;;;;;;;;;;107026;1253;60412;-80
2024/02/23 07:27:35;;;;;;;24.70;11.50;;;;;;;;;;107153;1254;61604;-80
2024/02/23 07:30:02;;;;;;;16.30;8.40;;;;;;;;;;107073;1251;59854;-86
2024/02/23 07:32:29;;;;;;;5.90;3.30;;;;;;;;;;107264;1256;60850;-85
2024/02/23 07:34:56;;;;;;;10.30;4.40;;;;;;;;;;107309;1251;60454;-80
2024/02/23 07:37:22;;;;;;;9.60;4.70;;;;;;;;;;107005;1257;60552;-86
2024/02/23 07:39:49;;;;;;;8.60;3.00;;;;;;;;;;107241;1251;60399;-86
2024/02/23 07:42:18;;;;;;;4.80;2.80;;;;;;;;;;107297;1256;60334;-80
2024/02/23 07:44:45;;;;;;;3.60;2.40;;;;;;;;;;107199;1256;60985;-80
2024/02/23 07:47:11;;;;;;;6.60;4.60;;;;;;;;;;107108;1251;60193;-80
2024/02/23 07:49:40;;;;;;;11.20;5.70;;;;;;;;;;107119;1254;60766;-80
2024/02/23 07:52:06;;;;;;;;;;;;;;;;;;107571;1256;59430;-85
2024/02/23 07:54:33;;;;;;;4.50;3.30;;;;;;;;;;107223;1256;60528;-84
2024/02/23 07:56:59;;;;;;;8.20;4.10;;;;;;;;;;107139;1251;60344;-85
2024/02/23 07:59:28;;;;;;;5.90;3.90;;;;;;;;;;107549;1254;60303;-85
2024/02/23 08:01:55;;;;;;;5.80;3.90;;;;;;;;;;109498;1251;59760;-86
2024/02/23 08:04:22;;;;;;;6.00;3.50;;;;;;;;;;109430;1251;58206;-80
2024/02/23 08:06:48;;;;;;;3.40;2.60;;;;;;;;;;107717;1252;58969;-85
2024/02/23 08:09:15;;;;;;;4.30;2.80;;;;;;;;;;108313;1256;58686;-85
2024/02/23 08:11:41;;;;;;;11.20;6.50;;;;;;;;;;107726;1255;60414;-79
2024/02/23 08:14:08;;;;;;;7.50;4.30;;;;;;;;;;107626;1253;60373;-85
2024/02/23 08:16:35;;;;;;;46.90;24.90;;;;;;;;;;107927;1251;60262;-80
2024/02/23 08:19:01;;;;;;;365.60;193.00;;;;;;;;;;109386;1251;58243;-86
2024/02/23 08:21:27;;;;;;;114.40;68.10;;;;;;;;;;109485;1255;58095;-80
2024/02/23 08:23:54;;;;;;;30.90;22.00;;;;;;;;;;109316;1251;58992;-80
2024/02/23 08:26:20;;;;;;;52.60;32.00;;;;;;;;;;107256;1251;60416;-84
2024/02/23 08:28:47;;;;;;;24.10;16.50;;;;;;;;;;107255;1255;60472;-86
2024/02/23 08:31:13;;;;;;;25.70;14.20;;;;;;;;;;107323;1251;60457;-80
2024/02/23 08:33:40;;;;;;;14.30;9.30;;;;;;;;;;107324;1251;60319;-86
2024/02/23 08:36:06;;;;;;;102.30;50.40;;;;;;;;;;107253;1251;60358;-80
2024/02/23 08:38:33;;;;;;;95.70;49.30;;;;;;;;;;109447;1251;58062;-80
2024/02/23 08:41:00;;;;;;;116.60;62.00;;;;;;;;;;109407;1251;59238;-80
2024/02/23 08:43:26;;;;;;;36.90;22.20;;;;;;;;;;109504;1251;58041;-80
2024/02/23 08:45:52;;;;;;;14.10;8.90;;;;;;;;;;109510;1251;58088;-80
2024/02/23 08:48:19;;;;;;;37.00;21.60;;;;;;;;;;109429;1251;58881;-80
2024/02/23 08:50:45;;;;;;;34.20;19.20;;;;;;;;;;109329;1251;58520;-85
2024/02/23 08:53:12;;;;;;;80.80;47.50;;;;;;;;;;109449;1251;58288;-86
2024/02/23 08:55:38;;;;;;;56.80;38.70;;;;;;;;;;109550;1251;58172;-80
2024/02/23 08:58:05;;;;;;;24.40;15.40;;;;;;;;;;109366;1251;58356;-86
2024/02/23 09:00:32;;;;;;;20.70;12.00;;;;;;;;;;108083;1251;59713;-80
2024/02/23 09:02:58;;;;;;;12.40;5.60;;;;;;;;;;108823;1251;60325;-80
2024/02/23 09:05:25;;;;;;;7.90;4.50;;;;;;;;;;109480;1256;58128;-80
2024/02/23 09:07:53;;;;;;;9.70;6.70;;;;;;;;;;109462;1251;58088;-80
2024/02/23 09:10:19;;;;;;;14.10;9.70;;;;;;;;;;108329;1251;59896;-79
2024/02/23 09:12:46;;;;;;;18.30;11.10;;;;;;;;;;107192;1251;60523;-85
2024/02/23 09:15:12;;;;;;;11.10;6.30;;;;;;;;;;107240;1251;60027;-79
2024/02/23 09:17:42;;;;;;;12.10;7.10;;;;;;;;;;107051;1251;61617;-85
2024/02/23 09:20:08;;;;;;;12.80;8.30;;;;;;;;;;107037;1254;60386;-85
2024/02/23 09:22:36;;;;;;;13.00;8.60;;;;;;;;;;108623;1251;61088;-80
2024/02/23 09:25:05;;;;;;;84.20;52.70;;;;;;;;;;109451;1252;58328;-80
2024/02/23 09:27:32;;;;;;;24.30;16.90;;;;;;;;;;108102;1256;60428;-80
2024/02/23 09:29:58;;;;;;;31.60;16.60;;;;;;;;;;107258;1251;60424;-80
2024/02/23 09:32:25;;;;;;;39.40;24.80;;;;;;;;;;108303;1251;58969;-86
2024/02/23 09:34:51;;;;;;;15.20;8.80;;;;;;;;;;108591;1251;58296;-85
2024/02/23 09:37:18;;;;;;;11.60;8.90;;;;;;;;;;107246;1251;60524;-79
2024/02/23 09:39:44;;;;;;;13.10;9.80;;;;;;;;;;106985;1251;61180;-79
2024/02/23 09:42:11;;;;;;;10.50;7.80;;;;;;;;;;107135;1251;60447;-80
2024/02/23 09:44:38;;;;;;;11.30;7.60;;;;;;;;;;107055;1257;58978;-85
2024/02/23 09:47:08;;;;;;;4.60;3.40;;;;;;;;;;107304;1253;60348;-85
2024/02/23 09:49:36;;;;;;;7.20;4.00;;;;;;;;;;107296;1251;60354;-80
2024/02/23 09:52:03;;;;;;;7.60;2.50;;;;;;;;;;107149;1251;60811;-85
2024/02/23 09:54:29;;;;;;;8.00;3.80;;;;;;;;;;107218;1251;60120;-80
2024/02/23 09:56:56;;;;;;;10.20;5.00;;;;;;;;;;107112;1251;60431;-81
2024/02/23 09:59:22;;;;;;;36.80;17.40;;;;;;;;;;107140;1256;60616;-86
2024/02/23 10:01:52;;;;;;;29.90;16.10;;;;;;;;;;107170;1251;60459;-81
2024/02/23 10:04:18;;;;;;;25.30;16.50;;;;;;;;;;106894;1251;61315;-81
2024/02/23 10:06:45;;;;;;;27.70;15.70;;;;;;;;;;107170;1254;60401;-86
2024/02/23 10:09:12;;;;;;;28.00;15.90;;;;;;;;;;107242;1251;59113;-85
2024/02/23 10:11:39;;;;;;;21.30;14.60;;;;;;;;;;107215;1252;60371;-85
2024/02/23 10:14:05;;;;;;;8.70;5.10;;;;;;;;;;107297;1251;60462;-86
2024/02/23 10:16:31;;;;;;;9.60;5.40;;;;;;;;;;107190;1253;59128;-86
2024/02/23 10:18:58;;;;;;;7.30;4.90;;;;;;;;;;107079;1253;60486;-86
2024/02/23 10:21:25;;;;;;;10.80;6.40;;;;;;;;;;107173;1251;59423;-80
2024/02/23 10:23:51;;;;;;;35.70;19.10;;;;;;;;;;107201;1251;60302;-81
2024/02/23 10:26:20;;;;;;;33.00;17.20;;;;;;;;;;107117;1251;61557;-86
2024/02/23 10:28:47;;;;;;;18.60;9.20;;;;;;;;;;107189;1251;60344;-86
2024/02/23 10:31:13;;;;;;;38.50;26.00;;;;;;;;;;107135;1251;60540;-81
2024/02/23 10:33:40;;;;;;;7.50;5.00;;;;;;;;;;107147;1252;60530;-86
2024/02/23 10:36:08;;;;;;;26.50;13.80;;;;;;;;;;107122;1252;60545;-80
2024/02/23 10:38:34;;;;;;;6.10;3.80;;;;;;;;;;107183;1256;60530;-81
2024/02/23 10:41:01;;;;;;;34.90;19.50;;;;;;;;;;107119;1256;60498;-86
2024/02/23 10:43:33;;;;;;;13.80;8.20;;;;;;;;;;107100;1251;60421;-86
2024/02/23 10:46:02;;;;;;;12.00;5.90;;;;;;;;;;107123;1251;60310;-81
2024/02/23 10:48:29;;;;;;;16.30;8.40;;;;;;;;;;107249;1251;61000;-80
2024/02/23 10:50:56;;;;;;;11.50;5.70;;;;;;;;;;107035;1251;60366;-80
2024/02/23 10:53:23;;;;;;;7.50;4.40;;;;;;;;;;107142;1251;60705;-86
2024/02/23 10:55:52;;;;;;;9.90;4.80;;;;;;;;;;107444;1251;60443;-80
2024/02/23 10:58:18;;;;;;;37.20;20.50;;;;;;;;;;107377;1253;60352;-81
2024/02/23 11:00:46;;;;;;;11.20;5.60;;;;;;;;;;107147;1251;60639;-86
2024/02/23 11:03:12;;;;;;;6.90;4.10;;;;;;;;;;109528;1251;58273;-84
2024/02/23 11:05:39;;;;;;;6.80;4.30;;;;;;;;;;109468;1251;58437;-79
2024/02/23 11:08:06;;;;;;;4.90;2.00;;;;;;;;;;107754;1251;60593;-78
2024/02/23 11:10:41;;;;;;;5.20;2.30;;;;;;;;;;106675;1251;60418;-85
2024/02/23 11:13:07;;;;;;;3.10;1.80;;;;;;;;;;107185;1251;60553;-81
2024/02/23 11:15:40;;;;;;;2.60;1.60;;;;;;;;;;107096;1251;60460;-80
2024/02/23 11:18:23;;;;;;;4.20;2.00;;;;;;;;;;107126;1251;60555;-86
2024/02/23 11:20:56;;;;;;;4.30;2.50;;;;;;;;;;107207;1251;60315;-81
2024/02/23 11:23:23;;;;;;;5.90;2.60;;;;;;;;;;107030;1251;60361;-86
2024/02/23 11:26:00;;;;;;;13.70;8.40;;;;;;;;;;106914;1252;61757;-86
2024/02/23 11:28:26;;;;;;;9.20;5.80;;;;;;;;;;107073;1251;60511;-86
2024/02/23 11:30:53;;;;;;;7.00;4.30;;;;;;;;;;106985;1251;60489;-81
2024/02/23 11:33:26;;;;;;;6.80;4.30;;;;;;;;;;106951;1255;60442;-81
2024/02/23 11:35:53;;;;;;;7.30;4.90;;;;;;;;;;106967;1251;60360;-81
2024/02/23 11:38:20;;;;;;;7.50;4.80;;;;;;;;;;106988;1251;62268;-81
2024/02/23 11:40:48;;;;;;;6.60;4.50;;;;;;;;;;107051;1253;60661;-87
2024/02/23 11:43:14;;;;;;;9.20;5.50;;;;;;;;;;107105;1253;60395;-81
2024/02/23 11:45:40;;;;;;;4.40;2.00;;;;;;;;;;107062;1251;61599;-81
2024/02/23 11:48:07;;;;;;;6.20;4.00;;;;;;;;;;106964;1253;59064;-86
2024/02/23 11:50:34;;;;;;;7.60;4.50;;;;;;;;;;106972;1251;61112;-81
2024/02/23 11:53:01;;;;;;;4.30;2.50;;;;;;;;;;106956;1251;58998;-86
2024/02/23 11:55:27;;;;;;;7.50;5.10;;;;;;;;;;106814;1251;60523;-86
2024/02/23 11:57:55;;;;;;;47.90;21.30;;;;;;;;;;106980;1251;60436;-81
2024/02/23 12:00:21;;;;;;;23.20;12.70;;;;;;;;;;107076;1251;60421;-81
2024/02/23 12:02:49;;;;;;;30.50;17.60;;;;;;;;;;106839;1256;60469;-86
2024/02/23 12:05:16;;;;;;;21.80;12.90;;;;;;;;;;107072;1251;60433;-80
2024/02/23 12:07:43;;;;;;;12.00;5.30;;;;;;;;;;107042;1251;60434;-86
2024/02/23 12:10:11;;;;;;;9.40;4.80;;;;;;;;;;107064;1251;60303;-81
2024/02/23 12:12:37;;;;;;;3.50;2.60;;;;;;;;;;107070;1251;60402;-81
2024/02/23 12:15:04;;;;;;;4.10;2.50;;;;;;;;;;107028;1251;60509;-86
2024/02/23 12:17:30;;;;;;;5.70;4.00;;;;;;;;;;107031;1255;60422;-80
2024/02/23 12:20:00;;;;;;;50.50;16.90;;;;;;;;;;106866;1251;60449;-86
2024/02/23 12:22:26;;;;;;;41.50;15.00;;;;;;;;;;107069;1254;60537;-81
2024/02/23 12:24:53;;;;;;;22.40;10.00;;;;;;;;;;107396;1256;60351;-81
2024/02/23 12:27:21;;;;;;;17.60;6.50;;;;;;;;;;107826;1251;61074;-85
2024/02/23 12:29:54;;;;;;;9.70;5.00;;;;;;;;;;107201;1251;60412;-80
2024/02/23 12:32:20;;;;;;;14.50;7.10;;;;;;;;;;107292;1256;60810;-80
2024/02/23 12:34:47;;;;;;;14.60;8.20;;;;;;;;;;106999;1256;60453;-87
2024/02/23 12:37:17;;;;;;;20.50;10.90;;;;;;;;;;107048;1251;60422;-80
2024/02/23 12:39:44;;;;;;;23.80;12.30;;;;;;;;;;107036;1253;61400;-80
2024/02/23 12:42:10;;;;;;;18.80;10.30;;;;;;;;;;106803;1251;60317;-86
2024/02/23 12:44:36;;;;;;;19.10;11.20;;;;;;;;;;107114;1251;60358;-85
2024/02/23 12:47:03;;;;;;;26.30;15.40;;;;;;;;;;107249;1251;60465;-80
2024/02/23 12:49:29;;;;;;;20.30;9.60;;;;;;;;;;107257;1251;60467;-81
2024/02/23 12:51:56;;;;;;;11.50;7.10;;;;;;;;;;107299;1251;60421;-85
2024/02/23 12:54:22;;;;;;;9.00;6.20;;;;;;;;;;107250;1255;60450;-80
2024/02/23 12:56:49;;;;;;;7.60;4.70;;;;;;;;;;107177;1251;60453;-80
2024/02/23 12:59:16;;;;;;;11.90;7.40;;;;;;;;;;107158;1255;61594;-86
2024/02/23 13:01:42;;;;;;;13.90;7.70;;;;;;;;;;107260;1251;60303;-81
2024/02/23 13:04:13;;;;;;;19.30;10.20;;;;;;;;;;107285;1256;60410;-86
2024/02/23 13:06:39;;;;;;;8.70;5.80;;;;;;;;;;107392;1251;60415;-80
2024/02/23 13:09:08;;;;;;;7.00;5.20;;;;;;;;;;107164;1256;60536;-80
2024/02/23 13:11:35;;;;;;;15.00;10.20;;;;;;;;;;109440;1251;59539;-87
2024/02/23 13:14:01;;;;;;;11.10;5.80;;;;;;;;;;109530;1251;58164;-79
2024/02/23 13:16:28;;;;;;;7.70;4.70;;;;;;;;;;109572;1251;58293;-84
2024/02/23 13:18:54;;;;;;;7.10;4.70;;;;;;;;;;109524;1251;58391;-79
2024/02/23 13:21:21;;;;;;;8.30;4.70;;;;;;;;;;107373;1251;60394;-83
2024/02/23 13:23:47;;;;;;;8.70;4.50;;;;;;;;;;106552;1254;60513;-85
2024/02/23 13:26:14;;;;;;;9.40;5.00;;;;;;;;;;107165;1251;60538;-80
2024/02/23 13:28:44;;;;;;;9.30;6.40;;;;;;;;;;107136;1251;60835;-80
2024/02/23 13:31:10;;;;;;;8.70;5.50;;;;;;;;;;107186;1251;58970;-80
2024/02/23 13:33:37;;;;;;;7.70;4.40;;;;;;;;;;107056;1251;60483;-86
2024/02/23 13:36:03;;;;;;;8.80;4.20;;;;;;;;;;107019;1256;60533;-86
2024/02/23 13:38:30;;;;;;;12.20;5.60;;;;;;;;;;107153;1251;61089;-80
2024/02/23 13:40:56;;;;;;;10.10;6.70;;;;;;;;;;107172;1253;60785;-80
2024/02/23 13:43:23;;;;;;;17.50;8.80;;;;;;;;;;107266;1251;58864;-80
2024/02/23 13:45:53;;;;;;;23.10;12.40;;;;;;;;;;107251;1253;60766;-80
2024/02/23 13:48:19;;;;;;;20.80;11.20;;;;;;;;;;107241;1253;60530;-80
2024/02/23 13:50:46;;;;;;;20.70;12.40;;;;;;;;;;107154;1251;59082;-86
2024/02/23 13:53:12;;;;;;;28.20;14.00;;;;;;;;;;107519;1254;61706;-81
2024/02/23 13:55:39;;;;;;;44.40;19.70;;;;;;;;;;107242;1251;60125;-86
2024/02/23 13:58:06;;;;;;;13.40;7.80;;;;;;;;;;107243;1256;60421;-86
2024/02/23 14:00:32;;;;;;;15.30;8.50;;;;;;;;;;107255;1251;60464;-86
2024/02/23 14:02:59;;;;;;;20.70;10.80;;;;;;;;;;107262;1251;60536;-86
2024/02/23 14:05:25;;;;;;;19.20;12.00;;;;;;;;;;107286;1251;60427;-86
2024/02/23 14:07:55;;;;;;;21.90;13.40;;;;;;;;;;107333;1251;60394;-80
2024/02/23 14:10:21;;;;;;;14.70;9.60;;;;;;;;;;107116;1251;60380;-85
2024/02/23 14:12:50;;;;;;;16.90;9.80;;;;;;;;;;107274;1251;59751;-80
2024/02/23 14:15:16;;;;;;;17.00;9.30;;;;;;;;;;107243;1251;60386;-80
2024/02/23 14:17:43;;;;;;;13.70;8.50;;;;;;;;;;107303;1251;58910;-81
2024/02/23 14:20:09;;;;;;;13.20;8.20;;;;;;;;;;107277;1254;60530;-79